sensor_id;sensor_type;location;lat;lon;timestamp;pressure;altitude;pressure_sealevel;temperature;humidity
73453;BME280;61687;56.232;43.854;2022-07-23T00:00:56;100440.38;;;17.28;78.19
73453;BME280;61687;56.232;43.854;2022-07-23T00:03:22;100436.00;;;17.31;78.41
73453;BME280;61687;56.232;43.854;2022-07-23T00:05:48;100441.13;;;17.29;78.42
73453;BME280;61687;56.232;43.854;2022-07-23T00:08:14;100445.16;;;17.24;78.41
73453;BME280;61687;56.232;43.854;2022-07-23T00:10:41;100440.84;;;17.20;78.29
73453;BME280;61687;56.232;43.854;2022-07-23T00:13:07;100446.78;;;17.18;78.48
73453;BME280;61687;56.232;43.854;2022-07-23T00:15:33;100447.97;;;17.17;78.43
73453;BME280;61687;56.232;43.854;2022-07-23T00:17:59;100444.06;;;17.14;78.42
73453;BME280;61687;56.232;43.854;2022-07-23T00:20:25;100452.38;;;17.11;78.45
73453;BME280;61687;56.232;43.854;2022-07-23T00:22:53;100447.66;;;17.11;78.53
73453;BME280;61687;56.232;43.854;2022-07-23T00:25:22;100442.13;;;17.11;78.67
73453;BME280;61687;56.232;43.854;2022-07-23T00:27:48;100441.31;;;17.11;78.87
73453;BME280;61687;56.232;43.854;2022-07-23T00:30:14;100442.50;;;17.10;78.68
73453;BME280;61687;56.232;43.854;2022-07-23T00:32:48;100443.72;;;17.09;78.83
73453;BME280;61687;56.232;43.854;2022-07-23T00:35:15;100443.34;;;17.07;78.80
73453;BME280;61687;56.232;43.854;2022-07-23T00:37:42;100445.31;;;17.06;79.02
73453;BME280;61687;56.232;43.854;2022-07-23T00:40:09;100451.25;;;17.05;78.74
73453;BME280;61687;56.232;43.854;2022-07-23T00:42:36;100442.16;;;17.04;78.92
73453;BME280;61687;56.232;43.854;2022-07-23T00:45:03;100452.41;;;17.07;78.90
73453;BME280;61687;56.232;43.854;2022-07-23T00:47:29;100455.19;;;17.07;78.79
73453;BME280;61687;56.232;43.854;2022-07-23T00:49:55;100443.72;;;17.05;78.73
73453;BME280;61687;56.232;43.854;2022-07-23T00:52:21;100445.72;;;17.05;78.97
73453;BME280;61687;56.232;43.854;2022-07-23T00:54:48;100446.13;;;17.03;78.84
73453;BME280;61687;56.232;43.854;2022-07-23T00:57:14;100446.56;;;17.01;79.00
73453;BME280;61687;56.232;43.854;2022-07-23T00:59:40;100446.13;;;17.03;78.86
73453;BME280;61687;56.232;43.854;2022-07-23T01:02:06;100446.94;;;17.04;78.92
73453;BME280;61687;56.232;43.854;2022-07-23T01:04:32;100448.50;;;17.05;78.83
73453;BME280;61687;56.232;43.854;2022-07-23T01:06:59;100445.31;;;17.06;78.92
73453;BME280;61687;56.232;43.854;2022-07-23T01:09:26;100448.06;;;17.06;78.93
73453;BME280;61687;56.232;43.854;2022-07-23T01:11:54;100447.31;;;17.06;78.93
73453;BME280;61687;56.232;43.854;2022-07-23T01:14:20;100444.53;;;17.06;79.14
73453;BME280;61687;56.232;43.854;2022-07-23T01:16:48;100444.16;;;17.04;78.95
73453;BME280;61687;56.232;43.854;2022-07-23T01:19:15;100449.25;;;17.05;79.10
73453;BME280;61687;56.232;43.854;2022-07-23T01:21:48;100455.19;;;17.07;79.00
73453;BME280;61687;56.232;43.854;2022-07-23T01:24:15;100451.22;;;17.08;79.02
73453;BME280;61687;56.232;43.854;2022-07-23T01:26:53;100459.53;;;17.08;79.00
73453;BME280;61687;56.232;43.854;2022-07-23T01:29:19;100457.94;;;17.11;78.87
73453;BME280;61687;56.232;43.854;2022-07-23T01:31:48;100461.50;;;17.11;78.96
73453;BME280;61687;56.232;43.854;2022-07-23T01:34:14;100464.63;;;17.13;79.03
73453;BME280;61687;56.232;43.854;2022-07-23T01:36:40;100469.75;;;17.15;79.04
73453;BME280;61687;56.232;43.854;2022-07-23T01:39:08;100472.13;;;17.16;78.92
73453;BME280;61687;56.232;43.854;2022-07-23T01:41:34;100472.91;;;17.17;79.05
73453;BME280;61687;56.232;43.854;2022-07-23T01:44:00;100470.56;;;17.15;79.01
73453;BME280;61687;56.232;43.854;2022-07-23T01:46:26;100460.25;;;17.16;79.16
73453;BME280;61687;56.232;43.854;2022-07-23T01:48:52;100466.56;;;17.20;78.99
73453;BME280;61687;56.232;43.854;2022-07-23T01:51:37;100461.78;;;17.24;78.99
73453;BME280;61687;56.232;43.854;2022-07-23T01:54:23;100464.50;;;17.28;78.95
73453;BME280;61687;56.232;43.854;2022-07-23T01:56:49;100460.94;;;17.31;78.80
73453;BME280;61687;56.232;43.854;2022-07-23T01:59:15;100462.06;;;17.34;79.01
73453;BME280;61687;56.232;43.854;2022-07-23T02:01:41;100464.38;;;17.39;78.79
73453;BME280;61687;56.232;43.854;2022-07-23T02:04:07;100461.19;;;17.44;78.90
73453;BME280;61687;56.232;43.854;2022-07-23T02:06:33;100459.16;;;17.48;78.76
73453;BME280;61687;56.232;43.854;2022-07-23T02:08:59;100467.44;;;17.52;78.87
73453;BME280;61687;56.232;43.854;2022-07-23T02:11:25;100457.13;;;17.56;78.83
73453;BME280;61687;56.232;43.854;2022-07-23T02:13:53;100459.41;;;17.61;78.65
73453;BME280;61687;56.232;43.854;2022-07-23T02:16:21;100461.75;;;17.66;78.45
73453;BME280;61687;56.232;43.854;2022-07-23T02:18:47;100458.50;;;17.71;78.50
73453;BME280;61687;56.232;43.854;2022-07-23T02:21:13;100472.31;;;17.79;78.79
73453;BME280;61687;56.232;43.854;2022-07-23T02:23:39;100459.56;;;17.85;78.64
73453;BME280;61687;56.232;43.854;2022-07-23T02:26:05;100467.78;;;17.92;78.51
73453;BME280;61687;56.232;43.854;2022-07-23T02:28:31;100462.56;;;17.98;78.59
73453;BME280;61687;56.232;43.854;2022-07-23T02:30:56;100466.06;;;18.06;78.50
73453;BME280;61687;56.232;43.854;2022-07-23T02:33:22;100465.97;;;18.13;78.42
73453;BME280;61687;56.232;43.854;2022-07-23T02:35:49;100459.53;;;18.20;78.89
73453;BME280;61687;56.232;43.854;2022-07-23T02:38:17;100465.38;;;18.29;79.15
73453;BME280;61687;56.232;43.854;2022-07-23T02:40:44;100462.03;;;18.41;79.13
73453;BME280;61687;56.232;43.854;2022-07-23T02:43:10;100462.66;;;18.53;78.84
73453;BME280;61687;56.232;43.854;2022-07-23T02:45:38;100464.91;;;18.62;78.53
73453;BME280;61687;56.232;43.854;2022-07-23T02:48:04;100466.72;;;18.72;78.29
73453;BME280;61687;56.232;43.854;2022-07-23T02:50:30;100466.63;;;18.79;78.34
73453;BME280;61687;56.232;43.854;2022-07-23T02:52:57;100466.53;;;18.86;77.88
73453;BME280;61687;56.232;43.854;2022-07-23T02:55:24;100464.78;;;18.96;77.60
73453;BME280;61687;56.232;43.854;2022-07-23T02:57:51;100469.47;;;19.03;77.32
73453;BME280;61687;56.232;43.854;2022-07-23T03:00:18;100472.91;;;19.11;77.01
73453;BME280;61687;56.232;43.854;2022-07-23T03:02:44;100463.22;;;19.19;76.85
73453;BME280;61687;56.232;43.854;2022-07-23T03:05:10;100457.97;;;19.25;76.59
73453;BME280;61687;56.232;43.854;2022-07-23T03:07:36;100461.81;;;19.31;76.41
73453;BME280;61687;56.232;43.854;2022-07-23T03:10:03;100459.75;;;19.35;76.42
73453;BME280;61687;56.232;43.854;2022-07-23T03:12:29;100460.84;;;19.41;76.08
73453;BME280;61687;56.232;43.854;2022-07-23T03:14:55;100460.38;;;19.47;76.12
73453;BME280;61687;56.232;43.854;2022-07-23T03:17:21;100461.84;;;19.51;76.02
73453;BME280;61687;56.232;43.854;2022-07-23T03:19:47;100458.25;;;19.54;75.99
73453;BME280;61687;56.232;43.854;2022-07-23T03:22:13;100453.41;;;19.58;75.77
73453;BME280;61687;56.232;43.854;2022-07-23T03:24:39;100458.44;;;19.64;75.79
73453;BME280;61687;56.232;43.854;2022-07-23T03:27:28;100466.72;;;19.67;75.68
73453;BME280;61687;56.232;43.854;2022-07-23T03:29:57;100461.03;;;19.74;75.57
73453;BME280;61687;56.232;43.854;2022-07-23T03:32:24;100454.19;;;19.79;75.49
73453;BME280;61687;56.232;43.854;2022-07-23T03:34:51;100454.09;;;19.83;75.15
73453;BME280;61687;56.232;43.854;2022-07-23T03:37:18;100457.97;;;19.89;75.06
73453;BME280;61687;56.232;43.854;2022-07-23T03:39:45;100454.34;;;19.92;75.34
73453;BME280;61687;56.232;43.854;2022-07-23T03:42:11;100463.41;;;19.96;75.04
73453;BME280;61687;56.232;43.854;2022-07-23T03:44:37;100459.25;;;20.05;74.86
73453;BME280;61687;56.232;43.854;2022-07-23T03:47:05;100458.25;;;20.15;74.67
73453;BME280;61687;56.232;43.854;2022-07-23T03:49:32;100455.28;;;20.22;74.48
73453;BME280;61687;56.232;43.854;2022-07-23T03:51:58;100459.50;;;20.30;74.00
73453;BME280;61687;56.232;43.854;2022-07-23T03:54:24;100464.56;;;20.36;73.77
73453;BME280;61687;56.232;43.854;2022-07-23T03:56:51;100458.47;;;20.41;73.98
73453;BME280;61687;56.232;43.854;2022-07-23T03:59:17;100463.09;;;20.48;73.87
73453;BME280;61687;56.232;43.854;2022-07-23T04:01:43;100459.72;;;20.56;73.79
73453;BME280;61687;56.232;43.854;2022-07-23T04:04:10;100459.53;;;20.64;73.52
73453;BME280;61687;56.232;43.854;2022-07-23T04:06:39;100457.72;;;20.73;73.19
73453;BME280;61687;56.232;43.854;2022-07-23T04:09:05;100460.28;;;20.84;73.05
73453;BME280;61687;56.232;43.854;2022-07-23T04:11:32;100462.03;;;20.95;72.80
73453;BME280;61687;56.232;43.854;2022-07-23T04:13:58;100464.63;;;21.02;72.17
73453;BME280;61687;56.232;43.854;2022-07-23T04:16:24;100470.53;;;21.04;71.96
73453;BME280;61687;56.232;43.854;2022-07-23T04:18:50;100473.59;;;21.10;71.84
73453;BME280;61687;56.232;43.854;2022-07-23T04:21:20;100471.06;;;21.15;71.73
73453;BME280;61687;56.232;43.854;2022-07-23T04:23:46;100477.31;;;21.20;71.81
73453;BME280;61687;56.232;43.854;2022-07-23T04:26:13;100468.78;;;21.27;71.61
73453;BME280;61687;56.232;43.854;2022-07-23T04:28:39;100465.44;;;21.32;71.48
73453;BME280;61687;56.232;43.854;2022-07-23T04:31:05;100468.50;;;21.38;71.22
73453;BME280;61687;56.232;43.854;2022-07-23T04:33:33;100469.09;;;21.45;71.08
73453;BME280;61687;56.232;43.854;2022-07-23T04:36:04;100472.47;;;21.53;71.14
73453;BME280;61687;56.232;43.854;2022-07-23T04:38:30;100460.34;;;21.60;70.89
73453;BME280;61687;56.232;43.854;2022-07-23T04:41:00;100467.75;;;21.67;70.93
73453;BME280;61687;56.232;43.854;2022-07-23T04:43:26;100460.75;;;21.75;70.40
73453;BME280;61687;56.232;43.854;2022-07-23T04:45:54;100461.00;;;21.81;70.35
73453;BME280;61687;56.232;43.854;2022-07-23T04:48:20;100463.66;;;21.84;70.56
73453;BME280;61687;56.232;43.854;2022-07-23T04:50:49;100467.91;;;21.89;70.19
73453;BME280;61687;56.232;43.854;2022-07-23T04:53:20;100467.28;;;21.98;70.04
73453;BME280;61687;56.232;43.854;2022-07-23T04:55:48;100467.06;;;22.05;69.96
73453;BME280;61687;56.232;43.854;2022-07-23T04:58:14;100457.25;;;22.13;69.81
73453;BME280;61687;56.232;43.854;2022-07-23T05:00:40;100459.72;;;22.24;69.60
73453;BME280;61687;56.232;43.854;2022-07-23T05:03:06;100450.56;;;22.37;69.59
73453;BME280;61687;56.232;43.854;2022-07-23T05:05:32;100461.44;;;22.48;68.94
73453;BME280;61687;56.232;43.854;2022-07-23T05:08:06;100455.16;;;22.56;68.98
73453;BME280;61687;56.232;43.854;2022-07-23T05:10:32;100455.28;;;22.66;68.94
73453;BME280;61687;56.232;43.854;2022-07-23T05:12:58;100458.06;;;22.79;68.93
73453;BME280;61687;56.232;43.854;2022-07-23T05:15:24;100457.38;;;22.87;67.92
73453;BME280;61687;56.232;43.854;2022-07-23T05:17:50;100460.84;;;22.92;67.96
73453;BME280;61687;56.232;43.854;2022-07-23T05:20:17;100459.94;;;22.95;67.78
73453;BME280;61687;56.232;43.854;2022-07-23T05:22:43;100456.88;;;23.02;67.59
73453;BME280;61687;56.232;43.854;2022-07-23T05:25:09;100454.97;;;23.12;67.06
73453;BME280;61687;56.232;43.854;2022-07-23T05:27:36;100460.19;;;23.23;67.07
73453;BME280;61687;56.232;43.854;2022-07-23T05:30:03;100453.59;;;23.29;66.39
73453;BME280;61687;56.232;43.854;2022-07-23T05:32:32;100457.56;;;23.41;66.44
73453;BME280;61687;56.232;43.854;2022-07-23T05:35:07;100452.50;;;23.49;65.88
73453;BME280;61687;56.232;43.854;2022-07-23T05:37:36;100463.25;;;23.51;65.79
73453;BME280;61687;56.232;43.854;2022-07-23T05:40:07;100459.88;;;23.56;65.96
73453;BME280;61687;56.232;43.854;2022-07-23T05:42:37;100459.94;;;23.65;65.87
73453;BME280;61687;56.232;43.854;2022-07-23T05:45:05;100462.00;;;23.74;64.92
73453;BME280;61687;56.232;43.854;2022-07-23T05:47:44;100458.19;;;23.81;64.48
73453;BME280;61687;56.232;43.854;2022-07-23T05:50:13;100469.25;;;23.84;64.73
73453;BME280;61687;56.232;43.854;2022-07-23T05:52:50;100458.56;;;23.92;64.33
73453;BME280;61687;56.232;43.854;2022-07-23T05:55:35;100454.72;;;23.99;64.07
73453;BME280;61687;56.232;43.854;2022-07-23T05:58:01;100462.41;;;24.08;64.18
73453;BME280;61687;56.232;43.854;2022-07-23T06:00:28;100456.38;;;24.19;63.82
73453;BME280;61687;56.232;43.854;2022-07-23T06:02:54;100456.75;;;24.30;64.09
73453;BME280;61687;56.232;43.854;2022-07-23T06:05:23;100455.38;;;24.35;63.38
73453;BME280;61687;56.232;43.854;2022-07-23T06:07:50;100456.66;;;24.43;63.72
73453;BME280;61687;56.232;43.854;2022-07-23T06:10:16;100455.47;;;24.53;63.66
73453;BME280;61687;56.232;43.854;2022-07-23T06:12:42;100451.75;;;24.66;63.41
73453;BME280;61687;56.232;43.854;2022-07-23T06:15:09;100452.44;;;24.79;62.97
73453;BME280;61687;56.232;43.854;2022-07-23T06:17:35;100457.13;;;24.92;61.54
73453;BME280;61687;56.232;43.854;2022-07-23T06:20:02;100452.78;;;25.00;61.62
73453;BME280;61687;56.232;43.854;2022-07-23T06:22:29;100450.00;;;25.09;61.64
73453;BME280;61687;56.232;43.854;2022-07-23T06:24:55;100447.66;;;25.17;61.34
73453;BME280;61687;56.232;43.854;2022-07-23T06:27:21;100445.63;;;25.27;61.29
73453;BME280;61687;56.232;43.854;2022-07-23T06:29:47;100445.50;;;25.31;60.51
73453;BME280;61687;56.232;43.854;2022-07-23T06:32:13;100444.41;;;25.37;60.38
73453;BME280;61687;56.232;43.854;2022-07-23T06:34:39;100446.72;;;25.39;59.87
73453;BME280;61687;56.232;43.854;2022-07-23T06:37:05;100445.47;;;25.40;60.21
73453;BME280;61687;56.232;43.854;2022-07-23T06:39:31;100440.03;;;25.46;59.54
73453;BME280;61687;56.232;43.854;2022-07-23T06:41:58;100438.97;;;25.52;58.68
73453;BME280;61687;56.232;43.854;2022-07-23T06:44:35;100442.38;;;25.56;58.83
73453;BME280;61687;56.232;43.854;2022-07-23T06:47:01;100440.81;;;25.65;58.62
73453;BME280;61687;56.232;43.854;2022-07-23T06:49:28;100442.06;;;25.73;58.93
73453;BME280;61687;56.232;43.854;2022-07-23T06:51:56;100441.72;;;25.80;59.10
73453;BME280;61687;56.232;43.854;2022-07-23T06:54:23;100442.47;;;25.90;58.63
73453;BME280;61687;56.232;43.854;2022-07-23T06:56:49;100446.50;;;25.98;58.41
73453;BME280;61687;56.232;43.854;2022-07-23T06:59:15;100441.81;;;26.05;58.40
73453;BME280;61687;56.232;43.854;2022-07-23T07:01:42;100446.78;;;26.10;58.36
73453;BME280;61687;56.232;43.854;2022-07-23T07:04:08;100440.41;;;26.19;58.56
73453;BME280;61687;56.232;43.854;2022-07-23T07:06:34;100440.53;;;26.24;58.23
73453;BME280;61687;56.232;43.854;2022-07-23T07:09:00;100439.88;;;26.29;57.98
73453;BME280;61687;56.232;43.854;2022-07-23T07:11:26;100448.44;;;26.35;57.59
73453;BME280;61687;56.232;43.854;2022-07-23T07:13:52;100441.69;;;26.42;57.13
73453;BME280;61687;56.232;43.854;2022-07-23T07:16:19;100432.63;;;26.47;56.80
73453;BME280;61687;56.232;43.854;2022-07-23T07:18:45;100441.19;;;26.53;56.67
73453;BME280;61687;56.232;43.854;2022-07-23T07:21:11;100439.75;;;26.57;55.91
73453;BME280;61687;56.232;43.854;2022-07-23T07:23:37;100442.97;;;26.65;56.16
73453;BME280;61687;56.232;43.854;2022-07-23T07:26:03;100441.06;;;26.71;55.61
73453;BME280;61687;56.232;43.854;2022-07-23T07:28:29;100449.63;;;26.77;55.37
73453;BME280;61687;56.232;43.854;2022-07-23T07:30:55;100438.81;;;26.85;54.28
73453;BME280;61687;56.232;43.854;2022-07-23T07:33:21;100437.69;;;26.92;54.38
73453;BME280;61687;56.232;43.854;2022-07-23T07:35:47;100444.56;;;26.91;52.66
73453;BME280;61687;56.232;43.854;2022-07-23T07:38:13;100442.94;;;26.99;52.98
73453;BME280;61687;56.232;43.854;2022-07-23T07:40:39;100439.78;;;27.06;52.06
73453;BME280;61687;56.232;43.854;2022-07-23T07:43:05;100433.50;;;27.11;53.09
73453;BME280;61687;56.232;43.854;2022-07-23T07:45:32;100439.72;;;27.16;53.26
73453;BME280;61687;56.232;43.854;2022-07-23T07:47:58;100442.53;;;27.16;52.77
73453;BME280;61687;56.232;43.854;2022-07-23T07:50:24;100433.00;;;27.13;52.45
73453;BME280;61687;56.232;43.854;2022-07-23T07:52:50;100439.41;;;27.13;52.42
73453;BME280;61687;56.232;43.854;2022-07-23T07:55:16;100431.56;;;27.18;52.16
73453;BME280;61687;56.232;43.854;2022-07-23T07:57:42;100443.22;;;27.25;52.75
73453;BME280;61687;56.232;43.854;2022-07-23T08:00:09;100443.63;;;27.33;51.63
73453;BME280;61687;56.232;43.854;2022-07-23T08:02:42;100441.69;;;27.39;51.34
73453;BME280;61687;56.232;43.854;2022-07-23T08:05:09;100435.31;;;27.39;51.63
73453;BME280;61687;56.232;43.854;2022-07-23T08:07:35;100439.47;;;27.43;51.67
73453;BME280;61687;56.232;43.854;2022-07-23T08:10:03;100433.00;;;27.52;50.93
73453;BME280;61687;56.232;43.854;2022-07-23T08:12:40;100443.41;;;27.61;49.68
73453;BME280;61687;56.232;43.854;2022-07-23T08:15:08;100440.19;;;27.68;48.38
73453;BME280;61687;56.232;43.854;2022-07-23T08:17:35;100441.44;;;27.67;46.35
73453;BME280;61687;56.232;43.854;2022-07-23T08:20:01;100427.19;;;27.71;47.16
73453;BME280;61687;56.232;43.854;2022-07-23T08:22:41;100434.94;;;27.76;46.13
73453;BME280;61687;56.232;43.854;2022-07-23T08:25:08;100438.28;;;27.75;45.27
73453;BME280;61687;56.232;43.854;2022-07-23T08:27:33;100432.75;;;27.80;46.47
73453;BME280;61687;56.232;43.854;2022-07-23T08:29:59;100431.47;;;27.81;44.24
73453;BME280;61687;56.232;43.854;2022-07-23T08:32:25;100431.25;;;27.85;42.25
73453;BME280;61687;56.232;43.854;2022-07-23T08:34:51;100424.94;;;27.90;42.28
73453;BME280;61687;56.232;43.854;2022-07-23T08:37:17;100419.81;;;27.89;42.04
73453;BME280;61687;56.232;43.854;2022-07-23T08:39:43;100422.03;;;27.99;43.67
73453;BME280;61687;56.232;43.854;2022-07-23T08:42:08;100422.69;;;28.09;42.57
73453;BME280;61687;56.232;43.854;2022-07-23T08:44:36;100427.53;;;28.09;43.38
73453;BME280;61687;56.232;43.854;2022-07-23T08:47:03;100424.06;;;28.14;42.63
73453;BME280;61687;56.232;43.854;2022-07-23T08:49:29;100422.97;;;28.11;42.90
73453;BME280;61687;56.232;43.854;2022-07-23T08:51:56;100419.03;;;28.18;44.27
73453;BME280;61687;56.232;43.854;2022-07-23T08:54:21;100424.75;;;28.24;44.39
73453;BME280;61687;56.232;43.854;2022-07-23T08:56:48;100427.56;;;28.24;44.36
73453;BME280;61687;56.232;43.854;2022-07-23T08:59:14;100425.72;;;28.21;44.32
73453;BME280;61687;56.232;43.854;2022-07-23T09:01:40;100419.88;;;28.24;43.88
73453;BME280;61687;56.232;43.854;2022-07-23T09:04:06;100421.72;;;28.27;44.07
73453;BME280;61687;56.232;43.854;2022-07-23T09:06:32;100422.28;;;28.32;43.85
73453;BME280;61687;56.232;43.854;2022-07-23T09:08:58;100419.34;;;28.41;44.12
73453;BME280;61687;56.232;43.854;2022-07-23T09:11:46;100422.25;;;28.47;43.14
73453;BME280;61687;56.232;43.854;2022-07-23T09:14:12;100416.41;;;28.50;43.67
73453;BME280;61687;56.232;43.854;2022-07-23T09:16:38;100414.94;;;28.55;44.70
73453;BME280;61687;56.232;43.854;2022-07-23T09:19:05;100410.38;;;28.58;44.51
73453;BME280;61687;56.232;43.854;2022-07-23T09:21:34;100405.28;;;28.62;44.60
73453;BME280;61687;56.232;43.854;2022-07-23T09:26:50;100404.13;;;28.53;43.01
73453;BME280;61687;56.232;43.854;2022-07-23T09:29:22;100403.66;;;28.55;43.77
73453;BME280;61687;56.232;43.854;2022-07-23T09:32:09;100401.53;;;28.50;41.73
73453;BME280;61687;56.232;43.854;2022-07-23T09:34:38;100398.16;;;28.46;41.94
73453;BME280;61687;56.232;43.854;2022-07-23T09:37:15;100398.63;;;28.44;41.14
73453;BME280;61687;56.232;43.854;2022-07-23T09:39:43;100393.84;;;28.50;41.87
73453;BME280;61687;56.232;43.854;2022-07-23T09:44:46;100399.38;;;28.60;43.21
73453;BME280;61687;56.232;43.854;2022-07-23T09:47:13;100394.41;;;28.54;42.95
73453;BME280;61687;56.232;43.854;2022-07-23T09:49:39;100389.47;;;28.49;42.94
73453;BME280;61687;56.232;43.854;2022-07-23T09:52:05;100385.03;;;28.42;41.57
73453;BME280;61687;56.232;43.854;2022-07-23T09:54:37;100391.94;;;28.41;39.76
73453;BME280;61687;56.232;43.854;2022-07-23T09:57:11;100386.25;;;28.36;40.67
73453;BME280;61687;56.232;43.854;2022-07-23T09:59:43;100383.84;;;28.49;41.62
73453;BME280;61687;56.232;43.854;2022-07-23T10:02:11;100378.28;;;28.55;40.88
73453;BME280;61687;56.232;43.854;2022-07-23T10:04:54;100378.13;;;28.64;41.54
73453;BME280;61687;56.232;43.854;2022-07-23T10:07:34;100384.91;;;28.73;40.43
73453;BME280;61687;56.232;43.854;2022-07-23T10:10:22;100389.22;;;28.89;40.56
73453;BME280;61687;56.232;43.854;2022-07-23T10:13:09;100386.72;;;29.17;40.71
73453;BME280;61687;56.232;43.854;2022-07-23T10:15:54;100383.44;;;29.45;40.51
73453;BME280;61687;56.232;43.854;2022-07-23T10:18:20;100377.41;;;29.90;38.50
73453;BME280;61687;56.232;43.854;2022-07-23T10:20:47;100380.72;;;30.70;36.37
73453;BME280;61687;56.232;43.854;2022-07-23T10:26:06;100385.63;;;30.26;39.16
73453;BME280;61687;56.232;43.854;2022-07-23T10:34:16;100380.72;;;30.64;36.96
73453;BME280;61687;56.232;43.854;2022-07-23T10:36:51;100386.09;;;31.34;36.96
73453;BME280;61687;56.232;43.854;2022-07-23T10:39:32;100390.91;;;33.54;34.13
73453;BME280;61687;56.232;43.854;2022-07-23T10:42:11;100378.06;;;33.00;35.12
73453;BME280;61687;56.232;43.854;2022-07-23T10:44:42;100376.25;;;34.75;31.18
73453;BME280;61687;56.232;43.854;2022-07-23T10:47:09;100376.63;;;34.85;31.64
73453;BME280;61687;56.232;43.854;2022-07-23T10:49:47;100376.03;;;34.92;30.96
73453;BME280;61687;56.232;43.854;2022-07-23T10:52:24;100363.94;;;36.03;29.50
73453;BME280;61687;56.232;43.854;2022-07-23T10:54:55;100364.44;;;36.82;29.61
73453;BME280;61687;56.232;43.854;2022-07-23T10:57:27;100359.09;;;36.65;29.87
73453;BME280;61687;56.232;43.854;2022-07-23T11:02:45;100352.59;;;35.51;31.02
73453;BME280;61687;56.232;43.854;2022-07-23T11:05:15;100354.84;;;34.68;30.97
73453;BME280;61687;56.232;43.854;2022-07-23T11:10:39;100348.09;;;33.05;33.76
73453;BME280;61687;56.232;43.854;2022-07-23T11:24:07;100355.69;;;31.35;39.22
73453;BME280;61687;56.232;43.854;2022-07-23T11:32:22;100352.88;;;31.46;39.95
73453;BME280;61687;56.232;43.854;2022-07-23T11:34:50;100352.09;;;31.40;39.60
73453;BME280;61687;56.232;43.854;2022-07-23T11:37:47;100347.91;;;31.07;40.17
73453;BME280;61687;56.232;43.854;2022-07-23T11:40:16;100345.56;;;31.05;39.96
73453;BME280;61687;56.232;43.854;2022-07-23T11:43:03;100344.13;;;30.61;39.77
73453;BME280;61687;56.232;43.854;2022-07-23T11:45:41;100354.47;;;30.15;40.48
73453;BME280;61687;56.232;43.854;2022-07-23T11:48:10;100351.59;;;29.77;40.56
73453;BME280;61687;56.232;43.854;2022-07-23T11:50:41;100359.34;;;29.50;41.73
73453;BME280;61687;56.232;43.854;2022-07-23T11:53:07;100354.56;;;29.35;42.34
73453;BME280;61687;56.232;43.854;2022-07-23T11:55:33;100350.66;;;29.27;42.20
73453;BME280;61687;56.232;43.854;2022-07-23T11:57:59;100343.25;;;29.30;42.31
73453;BME280;61687;56.232;43.854;2022-07-23T12:00:27;100352.75;;;29.32;43.25
73453;BME280;61687;56.232;43.854;2022-07-23T12:02:59;100343.16;;;29.45;43.24
73453;BME280;61687;56.232;43.854;2022-07-23T12:05:32;100344.00;;;29.56;43.11
73453;BME280;61687;56.232;43.854;2022-07-23T12:07:59;100340.72;;;29.64;43.51
73453;BME280;61687;56.232;43.854;2022-07-23T12:12:59;100346.59;;;29.92;44.21
73453;BME280;61687;56.232;43.854;2022-07-23T12:15:29;100330.16;;;32.09;40.35
73453;BME280;61687;56.232;43.854;2022-07-23T12:17:58;100328.47;;;34.23;37.46
73453;BME280;61687;56.232;43.854;2022-07-23T12:20:26;100333.88;;;34.71;35.57
73453;BME280;61687;56.232;43.854;2022-07-23T12:22:56;100322.50;;;34.27;36.79
73453;BME280;61687;56.232;43.854;2022-07-23T12:25:26;100324.66;;;33.96;36.18
73453;BME280;61687;56.232;43.854;2022-07-23T12:28:10;100325.97;;;35.81;33.42
73453;BME280;61687;56.232;43.854;2022-07-23T12:30:46;100328.28;;;37.62;32.11
73453;BME280;61687;56.232;43.854;2022-07-23T12:33:23;100336.50;;;39.52;29.90
73453;BME280;61687;56.232;43.854;2022-07-23T12:35:50;100337.63;;;39.87;28.73
73453;BME280;61687;56.232;43.854;2022-07-23T12:38:20;100326.97;;;40.44;28.22
73453;BME280;61687;56.232;43.854;2022-07-23T12:40:49;100319.41;;;41.23;27.66
73453;BME280;61687;56.232;43.854;2022-07-23T12:48:32;100316.97;;;43.06;24.37
73453;BME280;61687;56.232;43.854;2022-07-23T12:51:07;100302.31;;;41.00;25.90
73453;BME280;61687;56.232;43.854;2022-07-23T12:53:39;100298.88;;;38.56;28.76
73453;BME280;61687;56.232;43.854;2022-07-23T12:56:09;100293.00;;;36.47;31.25
73453;BME280;61687;56.232;43.854;2022-07-23T13:04:09;100314.38;;;32.36;37.65
73453;BME280;61687;56.232;43.854;2022-07-23T13:06:38;100334.59;;;31.87;39.16
73453;BME280;61687;56.232;43.854;2022-07-23T13:09:06;100319.13;;;31.37;40.16
73453;BME280;61687;56.232;43.854;2022-07-23T13:11:33;100313.41;;;30.91;41.24
73453;BME280;61687;56.232;43.854;2022-07-23T13:14:00;100322.28;;;30.55;42.71
73453;BME280;61687;56.232;43.854;2022-07-23T13:16:30;100333.41;;;30.21;43.63
73453;BME280;61687;56.232;43.854;2022-07-23T13:18:56;100329.91;;;29.94;44.46
73453;BME280;61687;56.232;43.854;2022-07-23T13:21:23;100322.00;;;29.66;45.03
73453;BME280;61687;56.232;43.854;2022-07-23T13:23:49;100324.66;;;29.44;45.23
73453;BME280;61687;56.232;43.854;2022-07-23T13:26:15;100318.81;;;29.26;45.70
73453;BME280;61687;56.232;43.854;2022-07-23T13:28:41;100325.13;;;29.16;46.95
73453;BME280;61687;56.232;43.854;2022-07-23T13:31:07;100321.50;;;29.09;47.24
73453;BME280;61687;56.232;43.854;2022-07-23T13:33:33;100324.16;;;29.19;47.11
73453;BME280;61687;56.232;43.854;2022-07-23T13:36:00;100318.81;;;29.91;45.18